sensor_id;sensor_type;location;lat;lon;timestamp;pressure;altitude;pressure_sealevel;temperature;humidity
45793;BME280;31495;42.740;22.908;2023-07-13T00:00:33;93460.34;;;20.15;64.65
45793;BME280;31495;42.740;22.908;2023-07-13T00:01:33;93441.97;;;20.10;64.19
45793;BME280;31495;42.740;22.908;2023-07-13T00:02:32;93439.88;;;20.12;64.28
45793;BME280;31495;42.740;22.908;2023-07-13T00:03:32;93454.84;;;20.22;64.27
45793;BME280;31495;42.740;22.908;2023-07-13T00:04:34;93447.75;;;20.07;64.46
45793;BME280;31495;42.740;22.908;2023-07-13T00:05:33;93421.38;;;19.71;64.88
45793;BME280;31495;42.740;22.908;2023-07-13T00:06:33;93451.81;;;19.72;65.54
45793;BME280;31495;42.740;22.908;2023-07-13T00:07:35;93452.88;;;19.71;65.88
45793;BME280;31495;42.740;22.908;2023-07-13T00:08:35;93450.25;;;19.66;66.04
45793;BME280;31495;42.740;22.908;2023-07-13T00:09:34;93448.94;;;19.69;66.00
45793;BME280;31495;42.740;22.908;2023-07-13T00:10:39;93450.28;;;19.76;65.91
45793;BME280;31495;42.740;22.908;2023-07-13T00:11:39;93447.94;;;19.80;65.99
45793;BME280;31495;42.740;22.908;2023-07-13T00:12:39;93452.41;;;19.85;65.32
45793;BME280;31495;42.740;22.908;2023-07-13T00:13:39;93450.84;;;19.89;65.37
45793;BME280;31495;42.740;22.908;2023-07-13T00:14:39;93447.44;;;19.88;65.21
45793;BME280;31495;42.740;22.908;2023-07-13T00:15:39;93446.66;;;19.98;64.84
45793;BME280;31495;42.740;22.908;2023-07-13T00:16:40;93442.19;;;19.98;64.93
45793;BME280;31495;42.740;22.908;2023-07-13T00:17:43;93441.41;;;19.93;65.20
45793;BME280;31495;42.740;22.908;2023-07-13T00:18:46;93436.66;;;19.79;64.95
45793;BME280;31495;42.740;22.908;2023-07-13T00:19:46;93424.25;;;19.64;65.29
45793;BME280;31495;42.740;22.908;2023-07-13T00:20:45;93443.66;;;19.63;65.57
45793;BME280;31495;42.740;22.908;2023-07-13T00:21:44;93454.69;;;19.60;65.79
45793;BME280;31495;42.740;22.908;2023-07-13T00:22:44;93448.38;;;19.56;66.13
45793;BME280;31495;42.740;22.908;2023-07-13T00:23:44;93446.00;;;19.55;65.65
45793;BME280;31495;42.740;22.908;2023-07-13T00:24:44;93442.06;;;19.57;66.18
45793;BME280;31495;42.740;22.908;2023-07-13T00:25:43;93434.44;;;19.56;66.32
45793;BME280;31495;42.740;22.908;2023-07-13T00:26:43;93437.63;;;19.63;66.06
45793;BME280;31495;42.740;22.908;2023-07-13T00:27:47;93439.25;;;19.74;65.68
45793;BME280;31495;42.740;22.908;2023-07-13T00:28:47;93432.41;;;19.73;65.60
45793;BME280;31495;42.740;22.908;2023-07-13T00:29:47;93429.78;;;19.73;65.17
45793;BME280;31495;42.740;22.908;2023-07-13T00:30:46;93437.44;;;19.90;65.14
45793;BME280;31495;42.740;22.908;2023-07-13T00:31:46;93423.03;;;19.93;64.53
45793;BME280;31495;42.740;22.908;2023-07-13T00:32:46;93430.88;;;19.82;64.62
45793;BME280;31495;42.740;22.908;2023-07-13T00:33:45;93438.72;;;19.77;64.64
45793;BME280;31495;42.740;22.908;2023-07-13T00:34:45;93437.91;;;19.67;65.11
45793;BME280;31495;42.740;22.908;2023-07-13T00:35:44;93410.28;;;19.43;65.25
45793;BME280;31495;42.740;22.908;2023-07-13T00:36:44;93422.06;;;19.41;65.56
45793;BME280;31495;42.740;22.908;2023-07-13T00:37:43;93432.06;;;19.49;65.73
45793;BME280;31495;42.740;22.908;2023-07-13T00:38:43;93438.66;;;19.52;66.02
45793;BME280;31495;42.740;22.908;2023-07-13T00:39:43;93432.88;;;19.55;65.78
45793;BME280;31495;42.740;22.908;2023-07-13T00:40:42;93396.84;;;19.35;65.59
45793;BME280;31495;42.740;22.908;2023-07-13T00:41:42;93433.94;;;19.64;65.13
45793;BME280;31495;42.740;22.908;2023-07-13T00:42:43;93411.06;;;19.44;64.84
45793;BME280;31495;42.740;22.908;2023-07-13T00:43:43;93431.56;;;19.52;64.85
45793;BME280;31495;42.740;22.908;2023-07-13T00:46:31;93439.94;;;19.49;65.78
45793;BME280;31495;42.740;22.908;2023-07-13T00:47:31;93443.06;;;19.46;65.72
45793;BME280;31495;42.740;22.908;2023-07-13T00:48:34;93426.25;;;19.37;65.54
45793;BME280;31495;42.740;22.908;2023-07-13T00:49:35;93443.88;;;19.46;66.21
45793;BME280;31495;42.740;22.908;2023-07-13T00:50:36;93430.44;;;19.38;66.14
45793;BME280;31495;42.740;22.908;2023-07-13T00:51:43;93439.69;;;19.51;65.91
45793;BME280;31495;42.740;22.908;2023-07-13T00:52:49;93428.91;;;19.47;65.40
45793;BME280;31495;42.740;22.908;2023-07-13T00:53:51;93415.00;;;19.41;65.66
45793;BME280;31495;42.740;22.908;2023-07-13T00:54:52;93408.41;;;19.34;65.69
45793;BME280;31495;42.740;22.908;2023-07-13T00:55:53;93428.91;;;19.42;65.50
45793;BME280;31495;42.740;22.908;2023-07-13T00:56:59;93421.44;;;19.18;65.90
45793;BME280;31495;42.740;22.908;2023-07-13T00:58:00;93435.38;;;19.24;66.78
45793;BME280;31495;42.740;22.908;2023-07-13T00:59:02;93424.28;;;19.06;66.71
45793;BME280;31495;42.740;22.908;2023-07-13T01:00:05;93447.91;;;19.12;67.01
45793;BME280;31495;42.740;22.908;2023-07-13T01:01:09;93447.09;;;19.06;67.34
45793;BME280;31495;42.740;22.908;2023-07-13T01:02:09;93423.56;;;18.79;67.44
45793;BME280;31495;42.740;22.908;2023-07-13T01:03:09;93441.88;;;18.68;68.18
45793;BME280;31495;42.740;22.908;2023-07-13T01:04:09;93424.97;;;18.49;68.49
45793;BME280;31495;42.740;22.908;2023-07-13T01:05:16;93447.81;;;18.59;68.54
45793;BME280;31495;42.740;22.908;2023-07-13T01:06:16;93441.53;;;18.54;68.83
45793;BME280;31495;42.740;22.908;2023-07-13T01:07:18;93449.44;;;18.65;69.12
45793;BME280;31495;42.740;22.908;2023-07-13T01:08:18;93443.22;;;18.71;69.26
45793;BME280;31495;42.740;22.908;2023-07-13T01:09:19;93429.25;;;18.65;68.84
45793;BME280;31495;42.740;22.908;2023-07-13T01:10:22;93443.81;;;18.83;68.73
45793;BME280;31495;42.740;22.908;2023-07-13T01:11:22;93435.47;;;18.91;67.52
45793;BME280;31495;42.740;22.908;2023-07-13T01:12:21;93435.25;;;18.98;67.33
45793;BME280;31495;42.740;22.908;2023-07-13T01:13:21;93422.91;;;18.94;66.91
45793;BME280;31495;42.740;22.908;2023-07-13T01:14:21;93433.47;;;19.04;66.87
45793;BME280;31495;42.740;22.908;2023-07-13T01:15:45;93417.34;;;18.85;67.39
45793;BME280;31495;42.740;22.908;2023-07-13T01:16:46;93431.44;;;18.79;67.81
45793;BME280;31495;42.740;22.908;2023-07-13T01:17:46;93410.84;;;18.50;68.14
45793;BME280;31495;42.740;22.908;2023-07-13T01:18:46;93416.50;;;18.36;68.67
45793;BME280;31495;42.740;22.908;2023-07-13T01:19:45;93440.44;;;18.50;68.69
45793;BME280;31495;42.740;22.908;2023-07-13T01:21:11;93421.31;;;18.50;68.74
45793;BME280;31495;42.740;22.908;2023-07-13T01:22:15;93395.53;;;18.36;68.80
45793;BME280;31495;42.740;22.908;2023-07-13T01:23:15;93418.19;;;18.53;68.49
45793;BME280;31495;42.740;22.908;2023-07-13T01:24:14;93379.03;;;18.36;68.67
45793;BME280;31495;42.740;22.908;2023-07-13T01:25:14;93430.88;;;18.71;68.28
45793;BME280;31495;42.740;22.908;2023-07-13T01:26:13;93426.16;;;18.73;68.13
45793;BME280;31495;42.740;22.908;2023-07-13T01:27:21;93415.22;;;18.82;68.40
45793;BME280;31495;42.740;22.908;2023-07-13T01:28:22;93430.78;;;18.99;67.11
45793;BME280;31495;42.740;22.908;2023-07-13T01:29:22;93411.09;;;18.86;67.11
45793;BME280;31495;42.740;22.908;2023-07-13T01:30:21;93412.91;;;18.90;66.83
45793;BME280;31495;42.740;22.908;2023-07-13T01:31:20;93414.25;;;18.93;67.12
45793;BME280;31495;42.740;22.908;2023-07-13T01:32:22;93398.16;;;18.79;67.29
45793;BME280;31495;42.740;22.908;2023-07-13T01:33:23;93431.84;;;18.98;67.19
45793;BME280;31495;42.740;22.908;2023-07-13T01:34:23;93399.19;;;18.78;67.57
45793;BME280;31495;42.740;22.908;2023-07-13T01:35:22;93399.53;;;18.87;67.46
45793;BME280;31495;42.740;22.908;2023-07-13T01:36:24;93432.41;;;19.05;67.27
45793;BME280;31495;42.740;22.908;2023-07-13T01:37:25;93376.63;;;18.72;66.75
45793;BME280;31495;42.740;22.908;2023-07-13T01:38:25;93387.94;;;18.78;66.69
45793;BME280;31495;42.740;22.908;2023-07-13T01:39:25;93400.84;;;18.84;66.62
45793;BME280;31495;42.740;22.908;2023-07-13T01:40:24;93429.22;;;18.92;67.24
45793;BME280;31495;42.740;22.908;2023-07-13T01:41:23;93381.31;;;18.65;67.72
45793;BME280;31495;42.740;22.908;2023-07-13T01:42:23;93432.84;;;18.86;67.62
45793;BME280;31495;42.740;22.908;2023-07-13T01:43:22;93428.00;;;18.73;67.62
45793;BME280;31495;42.740;22.908;2023-07-13T01:44:21;93388.97;;;18.34;67.99
45793;BME280;31495;42.740;22.908;2023-07-13T01:45:21;93406.81;;;18.37;68.42
45793;BME280;31495;42.740;22.908;2023-07-13T01:46:21;93432.47;;;18.35;69.09
45793;BME280;31495;42.740;22.908;2023-07-13T01:47:22;93426.03;;;18.15;69.83
45793;BME280;31495;42.740;22.908;2023-07-13T01:48:22;93403.91;;;18.01;69.70
45793;BME280;31495;42.740;22.908;2023-07-13T01:49:21;93420.75;;;18.10;69.80
45793;BME280;31495;42.740;22.908;2023-07-13T01:50:20;93428.88;;;18.14;69.95
45793;BME280;31495;42.740;22.908;2023-07-13T01:51:20;93419.66;;;18.06;69.70
45793;BME280;31495;42.740;22.908;2023-07-13T01:52:20;93421.78;;;18.09;69.96
45793;BME280;31495;42.740;22.908;2023-07-13T01:53:19;93434.44;;;18.23;69.73
45793;BME280;31495;42.740;22.908;2023-07-13T01:54:19;93409.47;;;18.10;68.82
45793;BME280;31495;42.740;22.908;2023-07-13T01:55:19;93411.50;;;18.03;69.21
45793;BME280;31495;42.740;22.908;2023-07-13T01:56:19;93444.31;;;18.10;69.38
45793;BME280;31495;42.740;22.908;2023-07-13T01:57:19;93437.41;;;17.99;69.62
45793;BME280;31495;42.740;22.908;2023-07-13T01:58:18;93414.09;;;17.75;70.09
45793;BME280;31495;42.740;22.908;2023-07-13T01:59:18;93442.84;;;17.92;70.29
45793;BME280;31495;42.740;22.908;2023-07-13T02:00:18;93430.81;;;17.96;70.65
45793;BME280;31495;42.740;22.908;2023-07-13T02:01:18;93427.94;;;17.98;70.09
45793;BME280;31495;42.740;22.908;2023-07-13T02:02:17;93416.41;;;17.94;70.35
45793;BME280;31495;42.740;22.908;2023-07-13T02:03:17;93390.66;;;17.86;70.03
45793;BME280;31495;42.740;22.908;2023-07-13T02:04:17;93421.28;;;18.12;69.63
45793;BME280;31495;42.740;22.908;2023-07-13T02:05:17;93409.88;;;17.96;69.53
45793;BME280;31495;42.740;22.908;2023-07-13T02:06:16;93393.53;;;17.84;69.83
45793;BME280;31495;42.740;22.908;2023-07-13T02:07:15;93408.66;;;17.82;70.22
45793;BME280;31495;42.740;22.908;2023-07-13T02:08:15;93430.47;;;17.88;70.40
45793;BME280;31495;42.740;22.908;2023-07-13T02:09:14;93437.41;;;17.77;70.87
45793;BME280;31495;42.740;22.908;2023-07-13T02:10:14;93379.66;;;17.34;71.19
45793;BME280;31495;42.740;22.908;2023-07-13T02:11:13;93424.59;;;17.53;71.39
45793;BME280;31495;42.740;22.908;2023-07-13T02:12:13;93408.06;;;17.48;71.38
45793;BME280;31495;42.740;22.908;2023-07-13T02:13:12;93423.88;;;17.58;71.62
45793;BME280;31495;42.740;22.908;2023-07-13T02:14:12;93420.75;;;17.61;71.85
45793;BME280;31495;42.740;22.908;2023-07-13T02:15:11;93410.22;;;17.56;71.78
45793;BME280;31495;42.740;22.908;2023-07-13T02:16:11;93384.50;;;17.48;71.98
45793;BME280;31495;42.740;22.908;2023-07-13T02:17:10;93393.56;;;17.62;71.16
45793;BME280;31495;42.740;22.908;2023-07-13T02:18:10;93408.13;;;17.80;70.42
45793;BME280;31495;42.740;22.908;2023-07-13T02:19:09;93413.31;;;17.75;70.57
45793;BME280;31495;42.740;22.908;2023-07-13T02:20:09;93430.38;;;17.77;70.96
45793;BME280;31495;42.740;22.908;2023-07-13T02:21:09;93372.59;;;17.35;70.91
45793;BME280;31495;42.740;22.908;2023-07-13T02:22:08;93425.44;;;17.59;71.28
45793;BME280;31495;42.740;22.908;2023-07-13T02:23:08;93426.59;;;17.46;71.79
45793;BME280;31495;42.740;22.908;2023-07-13T02:24:07;93413.22;;;17.42;71.84
45793;BME280;31495;42.740;22.908;2023-07-13T02:25:07;93437.44;;;17.55;71.93
45793;BME280;31495;42.740;22.908;2023-07-13T02:26:07;93438.03;;;17.62;71.92
45793;BME280;31495;42.740;22.908;2023-07-13T02:27:06;93430.19;;;17.62;71.26
45793;BME280;31495;42.740;22.908;2023-07-13T02:28:05;93442.34;;;17.73;71.23
45793;BME280;31495;42.740;22.908;2023-07-13T02:29:05;93432.41;;;17.75;70.81
45793;BME280;31495;42.740;22.908;2023-07-13T02:30:05;93417.28;;;17.77;70.79
45793;BME280;31495;42.740;22.908;2023-07-13T02:31:11;93439.66;;;17.90;70.02
45793;BME280;31495;42.740;22.908;2023-07-13T02:32:12;93426.56;;;17.90;70.09
45793;BME280;31495;42.740;22.908;2023-07-13T02:33:11;93432.13;;;17.94;70.38
45793;BME280;31495;42.740;22.908;2023-07-13T02:34:11;93428.44;;;17.95;70.23
45793;BME280;31495;42.740;22.908;2023-07-13T02:35:10;93416.59;;;17.87;70.35
45793;BME280;31495;42.740;22.908;2023-07-13T02:36:11;93433.22;;;18.03;69.68
45793;BME280;31495;42.740;22.908;2023-07-13T02:37:11;93429.88;;;18.08;69.79
45793;BME280;31495;42.740;22.908;2023-07-13T02:38:11;93437.22;;;18.11;69.30
45793;BME280;31495;42.740;22.908;2023-07-13T02:39:11;93423.50;;;17.98;69.59
45793;BME280;31495;42.740;22.908;2023-07-13T02:40:11;93398.16;;;17.77;69.30
45793;BME280;31495;42.740;22.908;2023-07-13T02:41:11;93426.72;;;17.83;69.86
45793;BME280;31495;42.740;22.908;2023-07-13T02:42:11;93411.03;;;17.56;70.32
45793;BME280;31495;42.740;22.908;2023-07-13T02:43:11;93403.16;;;17.29;71.20
45793;BME280;31495;42.740;22.908;2023-07-13T02:44:13;93433.19;;;17.49;71.22
45793;BME280;31495;42.740;22.908;2023-07-13T02:45:13;93441.13;;;17.59;71.08
45793;BME280;31495;42.740;22.908;2023-07-13T02:46:13;93433.91;;;17.44;71.60
45793;BME280;31495;42.740;22.908;2023-07-13T02:47:12;93438.13;;;17.45;71.68
45793;BME280;31495;42.740;22.908;2023-07-13T02:48:14;93427.59;;;17.40;72.09
45793;BME280;31495;42.740;22.908;2023-07-13T02:49:13;93417.88;;;17.35;72.21
45793;BME280;31495;42.740;22.908;2023-07-13T02:50:13;93416.81;;;17.36;72.33
45793;BME280;31495;42.740;22.908;2023-07-13T02:51:12;93443.72;;;17.54;72.00
45793;BME280;31495;42.740;22.908;2023-07-13T02:52:11;93438.03;;;17.62;71.49
45793;BME280;31495;42.740;22.908;2023-07-13T02:53:11;93424.72;;;17.63;70.61
45793;BME280;31495;42.740;22.908;2023-07-13T02:54:11;93395.84;;;17.53;70.26
45793;BME280;31495;42.740;22.908;2023-07-13T02:55:12;93436.91;;;17.80;70.40
45793;BME280;31495;42.740;22.908;2023-07-13T02:56:12;93447.44;;;17.85;70.33
45793;BME280;31495;42.740;22.908;2023-07-13T02:57:11;93417.78;;;17.74;70.09
45793;BME280;31495;42.740;22.908;2023-07-13T02:58:11;93429.91;;;17.86;69.92
45793;BME280;31495;42.740;22.908;2023-07-13T02:59:10;93451.81;;;18.02;69.99
45793;BME280;31495;42.740;22.908;2023-07-13T03:00:10;93449.47;;;18.05;69.90
45793;BME280;31495;42.740;22.908;2023-07-13T03:01:11;93440.56;;;18.01;69.61
45793;BME280;31495;42.740;22.908;2023-07-13T03:02:11;93440.78;;;17.99;69.17
45793;BME280;31495;42.740;22.908;2023-07-13T03:03:10;93438.34;;;17.88;69.76
45793;BME280;31495;42.740;22.908;2023-07-13T03:04:10;93436.97;;;17.85;69.89
45793;BME280;31495;42.740;22.908;2023-07-13T03:05:10;93451.47;;;17.93;70.01
45793;BME280;31495;42.740;22.908;2023-07-13T03:06:13;93444.09;;;17.90;70.04
45793;BME280;31495;42.740;22.908;2023-07-13T03:07:13;93435.41;;;17.84;70.00
45793;BME280;31495;42.740;22.908;2023-07-13T03:08:13;93431.97;;;17.83;69.98
45793;BME280;31495;42.740;22.908;2023-07-13T03:09:12;93444.88;;;17.90;69.94
45793;BME280;31495;42.740;22.908;2023-07-13T03:10:12;93443.78;;;17.86;69.82
45793;BME280;31495;42.740;22.908;2023-07-13T03:11:15;93449.91;;;17.97;69.57
45793;BME280;31495;42.740;22.908;2023-07-13T03:12:15;93460.41;;;17.97;69.38
45793;BME280;31495;42.740;22.908;2023-07-13T03:13:14;93449.91;;;17.97;69.60
45793;BME280;31495;42.740;22.908;2023-07-13T03:14:14;93420.97;;;17.81;69.50
45793;BME280;31495;42.740;22.908;2023-07-13T03:15:13;93446.81;;;18.00;69.80
45793;BME280;31495;42.740;22.908;2023-07-13T03:16:13;93444.19;;;18.00;70.11
45793;BME280;31495;42.740;22.908;2023-07-13T03:17:14;93434.09;;;17.87;70.10
45793;BME280;31495;42.740;22.908;2023-07-13T03:18:14;93441.28;;;17.96;70.11
45793;BME280;31495;42.740;22.908;2023-07-13T03:19:13;93450.78;;;18.03;69.56
45793;BME280;31495;42.740;22.908;2023-07-13T03:20:13;93438.50;;;17.81;70.02
45793;BME280;31495;42.740;22.908;2023-07-13T03:21:12;93439.78;;;17.78;70.21
45793;BME280;31495;42.740;22.908;2023-07-13T03:22:11;93409.88;;;17.47;70.40
45793;BME280;31495;42.740;22.908;2023-07-13T03:23:11;93447.34;;;17.75;70.73
45793;BME280;31495;42.740;22.908;2023-07-13T03:24:10;93428.06;;;17.59;70.61
45793;BME280;31495;42.740;22.908;2023-07-13T03:25:10;93454.41;;;17.74;70.45
45793;BME280;31495;42.740;22.908;2023-07-13T03:26:13;93438.34;;;17.66;70.54
45793;BME280;31495;42.740;22.908;2023-07-13T03:27:13;93447.00;;;17.66;70.83
45793;BME280;31495;42.740;22.908;2023-07-13T03:28:12;93454.84;;;17.66;70.57
45793;BME280;31495;42.740;22.908;2023-07-13T03:29:12;93431.91;;;17.51;71.06
45793;BME280;31495;42.740;22.908;2023-07-13T03:30:11;93432.75;;;17.57;71.27
45793;BME280;31495;42.740;22.908;2023-07-13T03:31:16;93438.72;;;17.52;70.71
45793;BME280;31495;42.740;22.908;2023-07-13T03:32:16;93427.91;;;17.43;70.77
45793;BME280;31495;42.740;22.908;2023-07-13T03:33:16;93439.00;;;17.56;70.94
45793;BME280;31495;42.740;22.908;2023-07-13T03:34:15;93436.88;;;17.53;70.95
45793;BME280;31495;42.740;22.908;2023-07-13T03:35:15;93445.28;;;17.55;70.68
45793;BME280;31495;42.740;22.908;2023-07-13T03:36:17;93423.28;;;17.29;71.08
45793;BME280;31495;42.740;22.908;2023-07-13T03:37:20;93460.38;;;17.48;71.14
45793;BME280;31495;42.740;22.908;2023-07-13T03:38:19;93439.34;;;17.37;71.33
45793;BME280;31495;42.740;22.908;2023-07-13T03:39:19;93452.72;;;17.41;71.50
45793;BME280;31495;42.740;22.908;2023-07-13T03:40:19;93444.31;;;17.39;71.14
45793;BME280;31495;42.740;22.908;2023-07-13T03:41:18;93443.06;;;17.41;71.27
45793;BME280;31495;42.740;22.908;2023-07-13T03:42:18;93462.69;;;17.66;71.15
45793;BME280;31495;42.740;22.908;2023-07-13T03:43:18;93440.91;;;17.60;70.45
45793;BME280;31495;42.740;22.908;2023-07-13T03:44:19;93429.91;;;17.58;70.55
45793;BME280;31495;42.740;22.908;2023-07-13T03:45:19;93443.63;;;17.71;70.71
45793;BME280;31495;42.740;22.908;2023-07-13T03:46:19;93445.75;;;17.74;70.62
45793;BME280;31495;42.740;22.908;2023-07-13T03:47:18;93449.81;;;17.87;70.38
45793;BME280;31495;42.740;22.908;2023-07-13T03:48:18;93448.06;;;17.92;70.11
45793;BME280;31495;42.740;22.908;2023-07-13T03:49:18;93440.13;;;17.87;70.02
45793;BME280;31495;42.740;22.908;2023-07-13T03:50:17;93460.09;;;17.93;70.20
45793;BME280;31495;42.740;22.908;2023-07-13T03:51:18;93437.66;;;17.75;70.29
45793;BME280;31495;42.740;22.908;2023-07-13T03:52:18;93453.16;;;17.82;70.37
45793;BME280;31495;42.740;22.908;2023-07-13T03:53:17;93450.94;;;17.69;70.96
45793;BME280;31495;42.740;22.908;2023-07-13T03:54:18;93453.16;;;17.55;71.63
45793;BME280;31495;42.740;22.908;2023-07-13T03:55:17;93422.81;;;17.32;72.07
45793;BME280;31495;42.740;22.908;2023-07-13T03:56:18;93440.44;;;17.41;71.88
45793;BME280;31495;42.740;22.908;2023-07-13T03:57:18;93456.00;;;17.53;72.09
45793;BME280;31495;42.740;22.908;2023-07-13T03:58:25;93455.28;;;17.58;72.10
45793;BME280;31495;42.740;22.908;2023-07-13T03:59:25;93443.75;;;17.59;72.10
45793;BME280;31495;42.740;22.908;2023-07-13T04:00:25;93418.22;;;17.44;71.84
45793;BME280;31495;42.740;22.908;2023-07-13T04:01:24;93438.09;;;17.67;72.01
45793;BME280;31495;42.740;22.908;2023-07-13T04:02:24;93436.34;;;17.73;71.40
45793;BME280;31495;42.740;22.908;2023-07-13T04:03:24;93420.88;;;17.71;71.00
45793;BME280;31495;42.740;22.908;2023-07-13T04:04:23;93435.41;;;17.84;70.49
45793;BME280;31495;42.740;22.908;2023-07-13T04:05:23;93437.66;;;17.75;71.32
45793;BME280;31495;42.740;22.908;2023-07-13T04:06:26;93454.44;;;17.79;71.29
45793;BME280;31495;42.740;22.908;2023-07-13T04:07:27;93443.69;;;17.76;71.36
45793;BME280;31495;42.740;22.908;2023-07-13T04:08:28;93441.75;;;17.66;71.37
45793;BME280;31495;42.740;22.908;2023-07-13T04:09:27;93454.22;;;17.81;72.14
45793;BME280;31495;42.740;22.908;2023-07-13T04:10:27;93451.78;;;17.74;72.09
45793;BME280;31495;42.740;22.908;2023-07-13T04:11:29;93466.16;;;17.94;71.91
45793;BME280;31495;42.740;22.908;2023-07-13T04:12:29;93461.41;;;17.91;71.32
45793;BME280;31495;42.740;22.908;2023-07-13T04:13:29;93463.81;;;17.97;71.43
45793;BME280;31495;42.740;22.908;2023-07-13T04:14:28;93455.28;;;17.85;71.43
45793;BME280;31495;42.740;22.908;2023-07-13T04:15:30;93468.25;;;17.97;71.44
45793;BME280;31495;42.740;22.908;2023-07-13T04:16:30;93480.84;;;18.00;71.60
45793;BME280;31495;42.740;22.908;2023-07-13T04:17:29;93461.41;;;17.91;71.84
45793;BME280;31495;42.740;22.908;2023-07-13T04:18:29;93475.41;;;18.07;71.49
45793;BME280;31495;42.740;22.908;2023-07-13T04:19:28;93461.53;;;18.06;71.34
45793;BME280;31495;42.740;22.908;2023-07-13T04:20:29;93467.91;;;18.15;71.81
45793;BME280;31495;42.740;22.908;2023-07-13T04:21:30;93467.44;;;18.18;71.50
45793;BME280;31495;42.740;22.908;2023-07-13T04:22:30;93472.66;;;18.18;71.88
45793;BME280;31495;42.740;22.908;2023-07-13T04:23:29;93453.22;;;18.14;71.62
45793;BME280;31495;42.740;22.908;2023-07-13T04:24:29;93457.47;;;18.21;71.50
45793;BME280;31495;42.740;22.908;2023-07-13T04:25:28;93471.22;;;18.38;71.39
45793;BME280;31495;42.740;22.908;2023-07-13T04:26:28;93454.97;;;18.36;71.08
45793;BME280;31495;42.740;22.908;2023-07-13T04:27:27;93473.72;;;18.50;70.75
45793;BME280;31495;42.740;22.908;2023-07-13T04:28:27;93455.59;;;18.43;71.25
45793;BME280;31495;42.740;22.908;2023-07-13T04:29:27;93468.22;;;18.51;71.46
45793;BME280;31495;42.740;22.908;2023-07-13T04:30:26;93415.31;;;18.17;71.49
45793;BME280;31495;42.740;22.908;2023-07-13T04:31:25;93457.75;;;18.51;71.32
45793;BME280;31495;42.740;22.908;2023-07-13T04:32:25;93471.69;;;18.62;71.53
45793;BME280;31495;42.740;22.908;2023-07-13T04:33:26;93475.41;;;18.66;71.23
45793;BME280;31495;42.740;22.908;2023-07-13T04:34:26;93471.44;;;18.64;71.48
45793;BME280;31495;42.740;22.908;2023-07-13T04:35:25;93474.91;;;18.69;71.15
45793;BME280;31495;42.740;22.908;2023-07-13T04:36:25;93473.34;;;18.73;71.63
45793;BME280;31495;42.740;22.908;2023-07-13T04:37:28;93476.75;;;18.74;71.44
45793;BME280;31495;42.740;22.908;2023-07-13T04:38:30;93473.63;;;18.77;71.64
45793;BME280;31495;42.740;22.908;2023-07-13T04:39:29;93457.06;;;18.66;71.91
45793;BME280;31495;42.740;22.908;2023-07-13T04:40:29;93480.56;;;18.88;71.11
45793;BME280;31495;42.740;22.908;2023-07-13T04:41:29;93457.72;;;18.84;71.06
45793;BME280;31495;42.740;22.908;2023-07-13T04:42:28;93455.31;;;18.82;70.87
45793;BME280;31495;42.740;22.908;2023-07-13T04:43:28;93463.00;;;18.89;70.69
45793;BME280;31495;42.740;22.908;2023-07-13T04:44:28;93462.78;;;18.96;70.65
45793;BME280;31495;42.740;22.908;2023-07-13T04:45:27;93479.09;;;19.08;70.73
45793;BME280;31495;42.740;22.908;2023-07-13T04:46:27;93459.91;;;18.97;71.04
45793;BME280;31495;42.740;22.908;2023-07-13T04:47:30;93480.47;;;19.16;70.71
45793;BME280;31495;42.740;22.908;2023-07-13T04:48:29;93482.84;;;19.22;70.64
45793;BME280;31495;42.740;22.908;2023-07-13T04:49:28;93467.63;;;19.19;69.89
45793;BME280;31495;42.740;22.908;2023-07-13T04:50:28;93476.59;;;19.28;69.84
45793;BME280;31495;42.740;22.908;2023-07-13T04:51:27;93483.72;;;19.38;69.94
45793;BME280;31495;42.740;22.908;2023-07-13T04:52:27;93415.09;;;19.04;69.87
45793;BME280;31495;42.740;22.908;2023-07-13T04:53:27;93464.56;;;19.43;69.82
45793;BME280;31495;42.740;22.908;2023-07-13T04:54:26;93443.28;;;19.29;69.47
45793;BME280;31495;42.740;22.908;2023-07-13T04:55:26;93465.41;;;19.54;69.72
45793;BME280;31495;42.740;22.908;2023-07-13T04:56:29;93469.63;;;19.60;69.75
45793;BME280;31495;42.740;22.908;2023-07-13T04:57:29;93455.69;;;19.49;69.52
45793;BME280;31495;42.740;22.908;2023-07-13T04:58:29;93476.22;;;19.68;69.62
45793;BME280;31495;42.740;22.908;2023-07-13T04:59:29;93474.13;;;19.64;69.18
45793;BME280;31495;42.740;22.908;2023-07-13T05:00:29;93480.44;;;19.74;68.86
45793;BME280;31495;42.740;22.908;2023-07-13T05:01:28;93456.53;;;19.65;68.18
45793;BME280;31495;42.740;22.908;2023-07-13T05:02:28;93471.81;;;19.78;68.02
45793;BME280;31495;42.740;22.908;2023-07-13T05:03:28;93474.47;;;19.83;67.38
45793;BME280;31495;42.740;22.908;2023-07-13T05:04:28;93461.31;;;19.78;67.18
45793;BME280;31495;42.740;22.908;2023-07-13T05:05:27;93465.03;;;19.93;66.90
45793;BME280;31495;42.740;22.908;2023-07-13T05:06:26;93456.34;;;19.82;66.87
45793;BME280;31495;42.740;22.908;2023-07-13T05:07:26;93463.44;;;19.92;67.35
45793;BME280;31495;42.740;22.908;2023-07-13T05:08:25;93445.84;;;19.87;67.33
45793;BME280;31495;42.740;22.908;2023-07-13T05:09:25;93459.53;;;19.99;67.24
45793;BME280;31495;42.740;22.908;2023-07-13T05:10:25;93468.75;;;20.07;66.69
45793;BME280;31495;42.740;22.908;2023-07-13T05:11:24;93466.13;;;20.07;66.40
45793;BME280;31495;42.740;22.908;2023-07-13T05:12:24;93481.63;;;20.19;66.59
45793;BME280;31495;42.740;22.908;2023-07-13T05:13:23;93481.91;;;20.23;66.77
45793;BME280;31495;42.740;22.908;2023-07-13T05:14:23;93446.94;;;20.12;66.99
45793;BME280;31495;42.740;22.908;2023-07-13T05:15:23;93477.47;;;20.33;66.87
45793;BME280;31495;42.740;22.908;2023-07-13T05:16:24;93483.22;;;20.41;66.85
45793;BME280;31495;42.740;22.908;2023-07-13T05:17:23;93455.88;;;20.26;66.92